Time;durP1;ratioP1;P1;durP2;ratioP2;P2;SDS_P1;SDS_P2;PMS_P1;PMS_P2;Temp;Humidity;BMP_temperature;BMP_pressure;BME280_temperature;BME280_humidity;BME280_pressure;Samples;Min_cycle;Max_cycle;Signal;HPM_P1;HPM_P2
2022/05/23 00:00:06;;;;;;;5.57;1.95;;;;;;;14.04;96.59;101085.31;4868929;29;20053;-77
2022/05/23 00:02:34;;;;;;;5.05;1.70;;;;;;;14.01;96.57;101078.28;4852314;29;20042;-77
2022/05/23 00:05:06;;;;;;;7.25;1.80;;;;;;;13.97;96.79;101076.56;4833068;29;20041;-77
2022/05/23 00:07:37;;;;;;;3.50;1.80;;;;;;;13.95;96.91;101082.72;4842894;29;20045;-77
2022/05/23 00:10:07;;;;;;;3.70;1.98;;;;;;;13.91;96.43;101068.63;4853668;29;20046;-77
2022/05/23 00:12:36;;;;;;;4.20;2.17;;;;;;;13.89;97.24;101069.53;4852230;29;20115;-78
2022/05/23 00:15:10;;;;;;;2.47;1.73;;;;;;;13.86;97.28;101061.63;4870103;29;20053;-77
2022/05/23 00:17:39;;;;;;;3.40;2.05;;;;;;;13.83;97.28;101065.16;4864680;29;20406;-79
2022/05/23 00:20:11;;;;;;;5.72;2.00;;;;;;;13.80;97.37;101065.19;4828094;29;20060;-77
2022/05/23 00:22:40;;;;;;;3.40;1.90;;;;;;;13.78;97.50;101057.25;4841568;29;20407;-77
2022/05/23 00:25:10;;;;;;;4.28;1.90;;;;;;;13.74;97.59;101050.22;4870102;29;20403;-77
2022/05/23 00:27:42;;;;;;;5.15;1.65;;;;;;;13.73;98.53;101051.09;4830489;29;20423;-78
2022/05/23 00:30:22;;;;;;;6.65;2.08;;;;;;;13.70;98.53;101055.53;4848858;29;20064;-77
2022/05/23 00:35:43;;;;;;;5.70;2.03;;;;;;;13.61;99.24;101044.13;4864151;29;20417;-77
2022/05/23 00:38:11;;;;;;;5.45;2.10;;;;;;;13.58;99.08;101030.03;4840478;29;20391;-77
2022/05/23 00:40:44;;;;;;;3.47;1.77;;;;;;;13.57;99.34;101034.44;4855584;29;20041;-78
2022/05/23 00:43:26;;;;;;;6.22;1.80;;;;;;;13.55;99.83;101025.59;4860992;29;20064;-77
2022/05/23 00:46:04;;;;;;;2.92;1.65;;;;;;;13.55;99.51;101022.09;4871451;29;20057;-77
2022/05/23 00:48:33;;;;;;;2.85;1.67;;;;;;;13.53;99.31;101019.44;4864321;29;20402;-78
2022/05/23 00:51:11;;;;;;;7.80;2.05;;;;;;;13.50;99.77;101008.03;4862214;29;20064;-78
2022/05/23 00:53:46;;;;;;;4.35;1.88;;;;;;;13.48;99.95;101002.72;4844821;29;20152;-77
2022/05/23 00:56:18;;;;;;;4.30;1.73;;;;;;;13.47;99.92;100994.78;4850713;29;20080;-78
2022/05/23 00:58:51;;;;;;;3.30;1.95;;;;;;;13.42;100.00;100995.69;4858581;29;20320;-77
2022/05/23 01:01:24;;;;;;;4.72;2.25;;;;;;;13.38;99.66;100986.03;4850250;29;20053;-78
2022/05/23 01:03:53;;;;;;;3.38;1.80;;;;;;;13.36;100.00;100987.78;4858626;29;20176;-78
2022/05/23 01:06:22;;;;;;;5.80;1.92;;;;;;;13.36;100.00;100981.63;4848206;29;20060;-77
2022/05/23 01:08:55;;;;;;;3.72;1.88;;;;;;;13.32;100.00;100979.88;4815011;29;20148;-77
2022/05/23 01:11:27;;;;;;;5.38;2.03;;;;;;;13.30;100.00;100974.59;4854096;29;20053;-77
2022/05/23 01:13:55;;;;;;;4.80;1.98;;;;;;;13.28;100.00;100973.69;4860453;29;20259;-77
2022/05/23 01:16:26;;;;;;;4.22;2.10;;;;;;;13.24;100.00;100967.53;4851175;29;20057;-77
2022/05/23 01:18:59;;;;;;;6.13;1.98;;;;;;;13.23;100.00;100971.09;4855799;29;20263;-77
2022/05/23 01:21:40;;;;;;;6.50;2.00;;;;;;;13.22;100.00;100961.38;4848662;29;20041;-77
2022/05/23 01:24:43;;;;;;;5.05;1.92;;;;;;;13.20;100.00;100955.22;4849449;29;20495;-77
2022/05/23 01:27:12;;;;;;;5.00;1.83;;;;;;;13.19;100.00;100960.50;4888257;29;20049;-77
2022/05/23 01:29:45;;;;;;;4.70;1.90;;;;;;;13.15;100.00;100962.28;4833462;29;20259;-78
2022/05/23 01:32:14;;;;;;;7.68;1.88;;;;;;;13.13;100.00;100953.47;4870923;29;20530;-77
2022/05/23 01:34:49;;;;;;;3.30;1.85;;;;;;;13.11;100.00;100949.09;4860592;29;20060;-77
2022/05/23 01:37:22;;;;;;;9.25;2.58;;;;;;;13.11;100.00;100936.75;4866749;29;20045;-77
2022/05/23 01:39:59;;;;;;;6.03;1.95;;;;;;;13.07;100.00;100925.28;4835106;29;20284;-78
2022/05/23 01:42:39;;;;;;;4.40;2.53;;;;;;;13.02;100.00;100919.19;4869112;29;20048;-77
2022/05/23 01:45:10;;;;;;;4.20;1.98;;;;;;;13.00;100.00;100918.28;4874287;29;20052;-77
2022/05/23 01:47:39;;;;;;;5.47;1.90;;;;;;;12.99;100.00;100910.38;4824825;29;20060;-76
2022/05/23 01:50:10;;;;;;;5.43;1.98;;;;;;;12.96;100.00;100919.19;4844025;29;20053;-77
2022/05/23 01:52:42;;;;;;;6.90;2.40;;;;;;;12.97;100.00;100912.16;4826977;29;20045;-79
2022/05/23 01:55:18;;;;;;;5.40;2.00;;;;;;;12.97;100.00;100923.59;4851802;29;20100;-78
2022/05/23 01:58:02;;;;;;;4.15;2.13;;;;;;;12.94;100.00;100915.69;4858743;29;20048;-77
2022/05/23 02:03:23;;;;;;;4.75;2.50;;;;;;;12.90;100.00;100918.34;4857425;29;20049;-76
2022/05/23 02:05:56;;;;;;;2.78;2.00;;;;;;;12.87;100.00;100917.50;4850478;29;20049;-78
2022/05/23 02:08:24;;;;;;;6.88;2.65;;;;;;;12.86;100.00;100909.56;4847592;29;20067;-77
2022/05/23 02:10:54;;;;;;;5.22;2.03;;;;;;;12.86;100.00;100907.78;4842630;29;20253;-77
2022/05/23 02:13:36;;;;;;;5.50;2.17;;;;;;;12.85;100.00;100906.03;4843819;29;20048;-77
2022/05/23 02:16:06;;;;;;;5.57;2.13;;;;;;;12.84;100.00;100898.09;4865518;29;20038;-77
2022/05/23 02:18:44;;;;;;;5.50;1.98;;;;;;;12.83;100.00;100886.63;4861754;29;20060;-77
2022/05/23 02:21:13;;;;;;;3.73;2.00;;;;;;;12.83;100.00;100889.28;4842952;29;20525;-78
2022/05/23 02:23:42;;;;;;;9.10;3.00;;;;;;;12.83;100.00;100880.47;4840598;29;20056;-77
2022/05/23 02:26:10;;;;;;;6.25;2.22;;;;;;;12.83;100.00;100877.81;4806289;29;20064;-78
2022/05/23 02:29:00;;;;;;;6.00;1.98;;;;;;;12.83;100.00;100881.34;4852588;29;20257;-77
2022/05/23 02:31:30;;;;;;;5.72;2.35;;;;;;;12.83;100.00;100884.00;4824267;29;20057;-78
2022/05/23 02:34:10;;;;;;;9.00;2.15;;;;;;;12.86;100.00;100876.03;4839076;29;20048;-77
2022/05/23 02:36:45;;;;;;;5.25;2.20;;;;;;;12.87;100.00;100875.19;4842447;29;20737;-77
2022/05/23 02:39:15;;;;;;;5.40;2.15;;;;;;;12.88;100.00;100861.03;4868516;29;20503;-76
2022/05/23 02:41:50;;;;;;;5.97;2.28;;;;;;;12.91;100.00;100864.56;4828463;29;20324;-77
2022/05/23 02:44:22;;;;;;;6.13;2.00;;;;;;;12.95;100.00;100863.66;4854144;29;20045;-77
2022/05/23 02:46:55;;;;;;;4.60;2.22;;;;;;;12.95;100.00;100856.63;4833404;29;20382;-77
2022/05/23 02:49:28;;;;;;;5.90;2.40;;;;;;;12.97;100.00;100854.84;4853548;29;20056;-77
2022/05/23 02:51:58;;;;;;;3.70;2.20;;;;;;;12.99;100.00;100858.34;4852256;29;20041;-76
2022/05/23 02:54:33;;;;;;;6.30;2.58;;;;;;;13.01;100.00;100853.06;4857631;29;20056;-76
2022/05/23 02:57:04;;;;;;;5.18;2.45;;;;;;;13.02;100.00;100855.69;4835003;29;20407;-77
2022/05/23 02:59:33;;;;;;;3.25;1.88;;;;;;;13.04;100.00;100837.13;4850812;29;20046;-77
2022/05/23 03:04:58;;;;;;;4.38;2.28;;;;;;;13.06;100.00;100832.72;4884913;29;21013;-78
2022/05/23 03:07:27;;;;;;;4.57;2.03;;;;;;;13.07;100.00;100823.91;4856485;29;20057;-76
2022/05/23 03:10:05;;;;;;;3.95;2.17;;;;;;;13.07;100.00;100819.47;4849462;29;20093;-77
2022/05/23 03:12:34;;;;;;;3.88;2.05;;;;;;;13.09;100.00;100816.81;4823368;29;20053;-76
2022/05/23 03:15:05;;;;;;;5.97;2.40;;;;;;;13.09;100.00;100814.19;4841980;29;20360;-76
2022/05/23 03:17:35;;;;;;;5.43;2.58;;;;;;;13.11;100.00;100815.03;4847751;29;20400;-76
2022/05/23 03:20:05;;;;;;;7.25;2.88;;;;;;;13.11;100.00;100816.81;4854588;29;20044;-77
2022/05/23 03:28:08;;;;;;;6.93;2.88;;;;;;;13.14;100.00;100809.75;4835074;29;20033;-77
2022/05/23 03:30:37;;;;;;;8.27;3.20;;;;;;;13.15;100.00;100808.84;4850346;29;20054;-76
2022/05/23 03:33:07;;;;;;;6.97;2.80;;;;;;;13.18;100.00;100805.31;4864308;29;20064;-78
2022/05/23 03:35:35;;;;;;;5.67;2.77;;;;;;;13.20;100.00;100804.38;4858380;29;20052;-77
2022/05/23 03:38:05;;;;;;;5.07;2.40;;;;;;;13.22;100.00;100807.91;4861841;29;20430;-78
2022/05/23 03:40:39;;;;;;;5.13;2.75;;;;;;;13.23;100.00;100804.38;4855387;29;20029;-77
2022/05/23 03:43:08;;;;;;;5.10;2.40;;;;;;;13.25;100.00;100801.69;4844732;29;20044;-77
2022/05/23 03:45:37;;;;;;;6.63;2.75;;;;;;;13.28;100.00;100793.72;4830849;29;20045;-77
2022/05/23 03:48:10;;;;;;;8.43;2.90;;;;;;;13.29;100.00;100800.81;4857631;29;20056;-77
2022/05/23 03:50:39;;;;;;;3.33;2.08;;;;;;;13.30;100.00;100785.78;4863458;29;20052;-77
2022/05/23 03:53:09;;;;;;;5.22;2.63;;;;;;;13.34;100.00;100790.19;4859287;29;20044;-77
2022/05/23 03:55:43;;;;;;;4.72;2.45;;;;;;;13.37;100.00;100784.88;4862343;29;20264;-77
2022/05/23 03:58:17;;;;;;;5.38;2.35;;;;;;;13.39;100.00;100780.44;4867848;29;20051;-77
2022/05/23 04:01:15;;;;;;;3.60;1.83;;;;;;;13.41;100.00;100783.97;4850829;29;20071;-77
2022/05/23 04:03:48;;;;;;;5.20;2.72;;;;;;;13.43;100.00;100768.94;4850060;29;20248;-78
2022/05/23 04:06:17;;;;;;;3.40;2.20;;;;;;;13.43;100.00;100761.84;4866845;29;20049;-78
2022/05/23 04:09:06;;;;;;;5.78;2.40;;;;;;;13.45;100.00;100759.19;4857411;29;20057;-78
2022/05/23 04:11:41;;;;;;;2.28;2.00;;;;;;;13.45;100.00;100751.25;4853074;29;20065;-77
2022/05/23 04:14:10;;;;;;;3.38;2.10;;;;;;;13.46;100.00;100742.44;4855234;29;20049;-77
2022/05/23 04:16:46;;;;;;;4.32;2.50;;;;;;;13.47;100.00;100741.53;4818259;29;20534;-77
2022/05/23 04:19:16;;;;;;;5.53;2.70;;;;;;;13.48;100.00;100730.06;4862208;29;20048;-77
2022/05/23 04:22:03;;;;;;;6.43;2.25;;;;;;;13.50;100.00;100728.28;4864732;29;20045;-77
2022/05/23 04:24:37;;;;;;;6.38;2.88;;;;;;;13.51;100.00;100732.66;4859076;29;20042;-77
2022/05/23 04:27:06;;;;;;;7.03;3.13;;;;;;;13.53;100.00;100733.53;4838654;29;20042;-78
2022/05/23 04:29:41;;;;;;;5.78;2.35;;;;;;;13.54;100.00;100731.78;4831879;29;20068;-79
2022/05/23 04:35:12;;;;;;;5.32;2.75;;;;;;;13.56;100.00;100722.03;4869291;29;20153;-78
2022/05/23 04:37:48;;;;;;;7.82;2.50;;;;;;;13.58;100.00;100720.25;4847825;29;20052;-78
2022/05/23 04:40:26;;;;;;;4.82;2.55;;;;;;;13.58;100.00;100717.59;4866250;29;20123;-78
2022/05/23 04:42:55;;;;;;;6.65;2.63;;;;;;;13.60;100.00;100707.88;4868239;29;20176;-77
2022/05/23 04:45:25;;;;;;;;;;;;;;;13.62;100.00;100704.28;4843838;29;20049;-77
2022/05/23 04:51:06;;;;;;;6.72;3.60;;;;;;;13.66;100.00;100686.59;4853586;29;20518;-77
2022/05/23 04:53:40;;;;;;;6.75;2.88;;;;;;;13.72;100.00;100689.16;4852919;29;20052;-78
2022/05/23 04:56:22;;;;;;;7.75;3.38;;;;;;;13.86;100.00;100685.50;4839223;29;20033;-78
2022/05/23 04:58:57;;;;;;;8.48;3.03;;;;;;;14.34;100.00;100680.41;4854896;29;20056;-78
2022/05/23 05:01:26;;;;;;;10.45;3.28;;;;;;;15.02;100.00;100666.94;4864742;29;20057;-78
2022/05/23 05:03:57;;;;;;;5.93;2.67;;;;;;;15.82;99.59;100664.50;4859524;29;20708;-78
2022/05/23 05:06:29;;;;;;;6.20;2.58;;;;;;;15.93;97.48;100651.88;4852808;29;20049;-78
2022/05/23 05:08:58;;;;;;;8.55;4.65;;;;;;;15.87;95.66;100660.84;4848420;29;20257;-76
2022/05/23 05:11:26;;;;;;;6.85;3.05;;;;;;;15.76;95.17;100655.78;4846865;29;20395;-78
2022/05/23 05:14:18;;;;;;;4.80;3.20;;;;;;;15.58;94.34;100656.13;4869511;29;20061;-77
2022/05/23 05:16:52;;;;;;;6.03;3.22;;;;;;;15.47;94.93;100636.88;4842786;29;20041;-77
2022/05/23 05:19:21;;;;;;;6.65;3.03;;;;;;;15.60;94.44;100644.56;4831839;29;20041;-78
2022/05/23 05:21:54;;;;;;;6.13;3.00;;;;;;;16.17;94.13;100630.06;4853745;29;20042;-78
2022/05/23 05:24:25;;;;;;;7.00;3.55;;;;;;;16.95;93.95;100637.03;4862422;29;20678;-78
2022/05/23 05:27:07;;;;;;;7.45;2.75;;;;;;;17.51;90.46;100621.25;4862628;29;20115;-77
2022/05/23 05:29:36;;;;;;;7.88;3.13;;;;;;;17.42;89.22;100613.53;4870376;29;20056;-78
2022/05/23 05:32:10;;;;;;;4.43;3.00;;;;;;;17.17;88.89;100613.38;4855910;29;20064;-77
2022/05/23 05:34:46;;;;;;;8.20;3.85;;;;;;;16.91;88.41;100614.94;4869805;29;20056;-77
2022/05/23 05:37:39;;;;;;;6.90;3.92;;;;;;;16.69;87.04;100616.38;4871677;29;20067;-77
2022/05/23 05:40:08;;;;;;;5.63;3.45;;;;;;;16.45;88.46;100620.56;4872771;29;20068;-77
2022/05/23 05:42:44;;;;;;;4.45;3.45;;;;;;;16.44;88.77;100617.00;4861934;29;20053;-77
2022/05/23 05:45:22;;;;;;;5.65;3.50;;;;;;;16.45;88.66;100604.59;4835113;29;20477;-78
2022/05/23 05:47:52;;;;;;;6.25;3.38;;;;;;;16.38;88.59;100604.72;4849400;29;20071;-79
2022/05/23 05:50:44;;;;;;;7.35;3.50;;;;;;;16.35;88.78;100596.84;4845069;29;20078;-78
2022/05/23 05:53:30;;;;;;;5.63;3.38;;;;;;;16.27;88.39;100596.13;4836025;29;20048;-79
2022/05/23 05:56:04;;;;;;;5.03;3.35;;;;;;;16.19;88.94;100590.16;4870149;29;20052;-79
2022/05/23 05:58:33;;;;;;;8.07;3.25;;;;;;;16.13;89.00;100579.66;4861254;29;20513;-76
2022/05/23 06:01:04;;;;;;;7.63;3.63;;;;;;;16.11;89.52;100587.66;4853268;29;20060;-77
2022/05/23 06:03:36;;;;;;;6.80;3.58;;;;;;;16.03;90.03;100583.44;4846333;29;20057;-76
2022/05/23 06:11:51;;;;;;;6.35;3.75;;;;;;;15.88;90.75;100580.25;4860942;29;20037;-78
2022/05/23 06:14:21;;;;;;;9.48;4.15;;;;;;;15.84;91.20;100581.22;4866905;29;20152;-77
2022/05/23 06:16:50;;;;;;;6.05;3.85;;;;;;;15.87;91.92;100581.13;4856695;29;21625;-78
2022/05/23 06:19:22;;;;;;;7.43;4.03;;;;;;;15.92;92.27;100579.25;4877208;29;20131;-78
2022/05/23 06:22:00;;;;;;;7.90;3.72;;;;;;;16.16;92.38;100566.28;4835663;29;20037;-78
2022/05/23 06:24:31;;;;;;;4.75;3.40;;;;;;;16.44;91.55;100553.16;4817754;29;20052;-77
2022/05/23 06:27:06;;;;;;;6.28;3.75;;;;;;;16.61;90.16;100555.41;4860741;29;20049;-77
2022/05/23 06:29:36;;;;;;;7.75;3.92;;;;;;;16.75;90.22;100550.59;4874208;29;20041;-77
2022/05/23 06:32:24;;;;;;;7.90;3.85;;;;;;;16.74;89.42;100551.50;4855683;29;20164;-78
2022/05/23 06:34:53;;;;;;;8.07;3.70;;;;;;;16.81;90.68;100546.03;4834237;29;20387;-77
2022/05/23 06:37:23;;;;;;;6.50;3.80;;;;;;;16.87;91.18;100535.25;4826879;29;20196;-78
2022/05/23 06:40:00;;;;;;;6.45;3.92;;;;;;;16.94;89.96;100543.00;4863986;29;20045;-77
2022/05/23 06:42:58;;;;;;;8.32;3.45;;;;;;;16.97;90.67;100533.19;4834822;29;20073;-78
2022/05/23 06:45:47;;;;;;;6.28;4.05;;;;;;;17.01;90.58;100538.38;4812750;29;20049;-78
2022/05/23 06:48:42;;;;;;;8.07;4.35;;;;;;;17.01;90.70;100541.03;4862807;29;20056;-78
2022/05/23 06:51:33;;;;;;;7.57;4.10;;;;;;;16.99;90.74;100537.53;4839325;29;20111;-78
2022/05/23 06:54:03;;;;;;;8.68;4.63;;;;;;;17.00;91.05;100539.31;4831718;29;20041;-78
2022/05/23 06:56:43;;;;;;;9.40;4.50;;;;;;;17.05;91.61;100534.72;4861619;29;20057;-78
2022/05/23 06:59:22;;;;;;;7.10;4.43;;;;;;;17.10;91.43;100524.78;4858950;29;20248;-78
2022/05/23 07:01:50;;;;;;;11.27;4.32;;;;;;;17.13;91.04;100531.84;4861890;29;20060;-78
2022/05/23 07:14:05;;;;;;;10.38;4.68;;;;;;;16.94;91.34;100519.06;4861525;29;20051;-78
2022/05/23 07:16:34;;;;;;;8.05;4.25;;;;;;;16.99;92.07;100526.03;4863116;29;20037;-78
2022/05/23 07:19:04;;;;;;;7.53;4.40;;;;;;;17.07;92.80;100527.56;4852674;29;20053;-78
2022/05/23 07:21:41;;;;;;;7.00;4.38;;;;;;;17.17;93.10;100525.50;4845260;29;20419;-78
2022/05/23 07:24:14;;;;;;;8.52;4.50;;;;;;;17.26;92.88;100533.22;4828531;29;20037;-78
2022/05/23 07:26:46;;;;;;;8.18;4.75;;;;;;;17.40;93.57;100535.47;4852424;29;20048;-78
2022/05/23 07:29:16;;;;;;;;;;;;;;;17.49;92.71;100529.00;4850905;29;20048;-77
2022/05/23 07:31:46;;;;;;;7.97;4.43;;;;;;;17.61;92.58;100525.94;4865580;29;19939;-77
2022/05/23 07:34:15;;;;;;;6.43;4.47;;;;;;;17.74;92.17;100521.97;4860346;29;20320;-78
2022/05/23 07:36:47;;;;;;;6.93;4.40;;;;;;;17.83;92.28;100507.50;4858318;29;20055;-76
2022/05/23 07:39:17;;;;;;;4.53;4.13;;;;;;;17.93;91.59;100495.63;4828922;29;21619;-77
2022/05/23 07:41:53;;;;;;;6.82;4.03;;;;;;;18.06;91.20;100498.75;4862777;29;20056;-78
2022/05/23 07:44:25;;;;;;;5.78;4.32;;;;;;;18.11;90.85;100495.97;4833237;29;20155;-77
2022/05/23 07:46:58;;;;;;;11.43;5.00;;;;;;;18.07;90.57;100489.84;4858512;29;20049;-77
2022/05/23 07:49:28;;;;;;;13.55;5.68;;;;;;;18.13;90.53;100494.13;4848752;29;20050;-77
2022/05/23 07:52:11;;;;;;;5.90;4.95;;;;;;;18.25;89.88;100487.47;4832373;29;20052;-77
2022/05/23 08:00:36;;;;;;;8.32;5.40;;;;;;;18.59;90.02;100470.28;4875134;29;20068;-77
2022/05/23 08:03:18;;;;;;;7.20;5.15;;;;;;;18.70;88.61;100460.97;4846462;29;20491;-77
2022/05/23 08:05:57;;;;;;;8.27;5.22;;;;;;;18.79;89.83;100457.09;4864236;29;20048;-77
2022/05/23 08:08:26;;;;;;;7.25;5.03;;;;;;;18.93;90.11;100458.41;4846897;29;20053;-77
2022/05/23 08:10:55;;;;;;;10.20;4.40;;;;;;;18.95;87.99;100452.06;4830348;29;20538;-77
2022/05/23 08:13:24;;;;;;;8.48;4.32;;;;;;;18.91;88.12;100454.94;4854439;29;20602;-79
2022/05/23 08:15:53;;;;;;;7.47;5.07;;;;;;;18.89;88.23;100447.84;4842621;29;20037;-77
2022/05/23 08:18:22;;;;;;;12.10;5.60;;;;;;;18.88;88.58;100443.44;4872997;29;20507;-78
2022/05/23 08:20:52;;;;;;;9.63;4.95;;;;;;;18.86;89.01;100431.91;4853049;29;20052;-78
2022/05/23 08:23:27;;;;;;;10.13;5.40;;;;;;;18.91;89.86;100433.56;4846593;29;20100;-78
2022/05/23 08:26:11;;;;;;;7.50;5.38;;;;;;;18.93;89.59;100427.25;4841083;29;20604;-78
2022/05/23 08:28:45;;;;;;;6.57;5.10;;;;;;;18.96;89.94;100426.25;4860530;29;20047;-77
2022/05/23 08:31:14;;;;;;;8.82;4.82;;;;;;;18.99;89.78;100426.13;4839981;29;20041;-77
2022/05/23 08:33:49;;;;;;;6.60;5.03;;;;;;;19.02;89.15;100426.88;4869836;29;20071;-76
2022/05/23 08:36:30;;;;;;;6.47;4.95;;;;;;;19.07;90.17;100414.25;4854616;29;20041;-77
2022/05/23 08:39:01;;;;;;;7.93;4.88;;;;;;;19.23;91.05;100418.97;4842718;29;20376;-78
2022/05/23 08:41:41;;;;;;;8.32;5.03;;;;;;;19.37;89.18;100411.25;4837728;29;20045;-78
2022/05/23 08:44:46;;;;;;;10.20;5.45;;;;;;;19.49;90.57;100401.91;4864041;29;20045;-78
2022/05/23 08:47:38;;;;;;;7.75;5.63;;;;;;;19.55;89.52;100403.44;4851406;29;20133;-78
2022/05/23 08:50:18;;;;;;;7.50;5.13;;;;;;;19.62;89.63;100399.56;4860450;29;20049;-78
2022/05/23 08:53:08;;;;;;;6.68;5.25;;;;;;;19.66;86.52;100407.41;4854118;29;20045;-78
2022/05/23 08:56:00;;;;;;;8.93;4.85;;;;;;;19.62;88.06;100391.56;4874763;29;20053;-78
2022/05/23 08:58:48;;;;;;;11.40;5.00;;;;;;;19.68;88.65;100388.66;4836675;29;20046;-78
2022/05/23 09:01:26;;;;;;;11.05;5.32;;;;;;;19.75;88.29;100382.13;4818637;29;20057;-77
2022/05/23 09:04:11;;;;;;;9.55;4.90;;;;;;;19.84;88.83;100391.56;4838490;29;20053;-77
2022/05/23 09:06:50;;;;;;;12.13;5.32;;;;;;;19.92;89.22;100375.19;4873295;29;20052;-81
2022/05/23 09:09:23;;;;;;;8.48;4.72;;;;;;;19.97;88.42;100374.06;4865703;29;20041;-78
2022/05/23 09:12:01;;;;;;;9.10;6.43;;;;;;;20.07;88.55;100369.16;4864111;29;20515;-78
2022/05/23 09:14:29;;;;;;;10.25;5.15;;;;;;;20.21;90.53;100361.41;4814534;29;20049;-77
2022/05/23 09:16:58;;;;;;;9.18;5.20;;;;;;;20.38;89.90;100357.97;4829247;29;20056;-77
2022/05/23 09:19:40;;;;;;;9.68;4.80;;;;;;;20.55;89.61;100353.69;4841369;29;20119;-78
2022/05/23 09:22:15;;;;;;;8.38;4.45;;;;;;;20.69;88.52;100351.25;4855201;29;20052;-78
2022/05/23 09:24:53;;;;;;;5.97;5.05;;;;;;;20.78;86.82;100340.09;4873399;29;20418;-78
2022/05/23 09:27:38;;;;;;;11.25;4.85;;;;;;;20.82;87.87;100335.47;4881135;29;20072;-78
2022/05/23 09:30:17;;;;;;;10.15;5.15;;;;;;;20.86;87.04;100334.38;4829586;29;20713;-77
2022/05/23 09:33:10;;;;;;;5.97;4.88;;;;;;;20.89;85.27;100325.31;4852998;29;20057;-77
2022/05/23 09:35:42;;;;;;;6.40;5.43;;;;;;;20.87;87.06;100330.78;4867893;29;20045;-77
2022/05/23 09:38:32;;;;;;;5.93;4.28;;;;;;;20.95;87.57;100328.59;4854845;29;20053;-77
2022/05/23 09:47:44;;;;;;;7.30;5.15;;;;;;;21.17;87.50;100311.44;4850757;29;20056;-77
2022/05/23 09:50:29;;;;;;;9.38;5.18;;;;;;;21.27;83.87;100295.81;4852703;29;20405;-78
2022/05/23 09:53:18;;;;;;;9.63;4.72;;;;;;;21.35;84.74;100296.28;4859995;29;20219;-77
2022/05/23 09:55:53;;;;;;;7.35;4.15;;;;;;;21.49;87.29;100295.59;4864713;29;20053;-78
2022/05/23 09:58:46;;;;;;;6.95;4.40;;;;;;;21.66;86.37;100282.19;4859738;29;20069;-77
2022/05/23 10:01:27;;;;;;;9.88;4.60;;;;;;;21.72;85.16;100279.22;4841048;29;20053;-78
2022/05/23 10:03:56;;;;;;;6.55;4.57;;;;;;;21.81;83.84;100285.91;4828893;29;20770;-78
2022/05/23 10:06:40;;;;;;;7.07;4.22;;;;;;;;;;4835196;29;20057;-78
2022/05/23 10:09:32;;;;;;;8.88;4.75;;;;;;;22.06;86.13;100272.06;4858672;29;20064;-78
2022/05/23 10:12:22;;;;;;;9.15;3.92;;;;;;;22.20;83.71;100266.81;4862711;29;20049;-80
2022/05/23 10:15:02;;;;;;;7.07;3.65;;;;;;;22.32;83.82;100267.13;4844331;29;20386;-78
2022/05/23 10:17:36;;;;;;;8.55;3.85;;;;;;;22.45;80.52;100259.25;4864353;29;20045;-76
2022/05/23 10:20:27;;;;;;;11.93;5.40;;;;;;;22.56;81.33;100246.09;4851960;29;20049;-77
2022/05/23 10:23:00;;;;;;;10.80;5.00;;;;;;;22.70;81.91;100242.63;4860305;29;20287;-78
2022/05/23 10:25:37;;;;;;;7.03;3.95;;;;;;;22.86;80.03;100245.31;4857416;29;20061;-77
2022/05/23 10:28:18;;;;;;;8.07;4.20;;;;;;;22.98;80.47;100229.31;4880606;29;20076;-79
2022/05/23 10:31:10;;;;;;;7.95;3.47;;;;;;;23.15;76.95;100220.31;4841025;29;20053;-78
2022/05/23 10:33:41;;;;;;;7.78;3.72;;;;;;;23.24;76.57;100218.91;4870523;29;20076;-78
2022/05/23 10:36:17;;;;;;;6.43;3.80;;;;;;;23.32;75.75;100216.63;4861355;29;20056;-81
2022/05/23 10:42:09;;;;;;;10.02;4.30;;;;;;;23.50;74.19;100200.34;4846481;29;20052;-80
2022/05/23 10:44:59;;;;;;;3.78;3.15;;;;;;;23.71;72.83;100196.34;4834784;29;20510;-80
2022/05/23 10:47:37;;;;;;;7.43;3.30;;;;;;;23.88;73.22;100200.69;4849534;29;20056;-81
2022/05/23 10:50:31;;;;;;;7.35;2.80;;;;;;;23.94;68.95;100200.31;4857774;29;20049;-80
2022/05/23 10:53:21;;;;;;;5.22;2.60;;;;;;;23.81;68.84;100193.97;4832892;29;20053;-81
2022/05/23 10:56:14;;;;;;;4.38;3.17;;;;;;;23.83;67.14;100183.13;4838640;29;20260;-81
2022/05/23 10:58:54;;;;;;;4.93;2.80;;;;;;;23.79;68.99;100179.75;4850167;29;20066;-81
2022/05/23 11:01:28;;;;;;;6.82;2.85;;;;;;;23.74;68.10;100188.09;4827458;29;20057;-80
2022/05/23 11:04:20;;;;;;;4.95;2.80;;;;;;;23.70;69.05;100173.06;4850398;29;20076;-80
2022/05/23 11:07:18;;;;;;;5.88;3.55;;;;;;;23.62;67.81;100171.84;4844114;29;20068;-79
2022/05/23 11:09:56;;;;;;;5.95;3.33;;;;;;;23.49;68.72;100166.34;4816628;29;20053;-80
2022/05/23 11:12:31;;;;;;;5.10;3.22;;;;;;;23.37;68.14;100173.34;4871315;29;20057;-80
2022/05/23 11:15:27;;;;;;;8.07;3.67;;;;;;;23.17;68.24;100163.78;4874481;29;20060;-80
2022/05/23 11:18:10;;;;;;;5.85;3.05;;;;;;;23.18;70.82;100156.63;4877812;29;20265;-81
2022/05/23 11:20:40;;;;;;;4.90;3.05;;;;;;;23.23;71.97;100149.13;4860498;29;20510;-80
2022/05/23 11:23:27;;;;;;;5.18;2.55;;;;;;;23.34;71.28;100138.56;4872431;29;20049;-79
2022/05/23 11:26:20;;;;;;;4.93;2.92;;;;;;;23.50;68.26;100141.19;4861941;29;20041;-79
2022/05/23 11:34:42;;;;;;;5.30;2.38;;;;;;;23.91;68.56;100116.22;4880620;29;20060;-79
2022/05/23 11:39:57;;;;;;;4.07;1.98;;;;;;;24.26;63.44;100107.69;4878352;29;20061;-80
2022/05/23 11:42:49;;;;;;;3.28;2.17;;;;;;;24.42;64.80;100086.00;4851286;29;20053;-80
2022/05/23 11:48:45;;;;;;;4.38;1.90;;;;;;;24.77;61.26;100089.03;4851709;29;20052;-81
2022/05/23 11:51:25;;;;;;;4.57;1.95;;;;;;;24.93;57.55;100077.22;4856871;29;20044;-79
2022/05/23 11:54:01;;;;;;;4.75;2.20;;;;;;;24.99;61.55;100080.38;4843445;29;20371;-80
2022/05/23 11:57:02;;;;;;;8.45;2.20;;;;;;;25.05;59.51;100069.16;4854194;29;20052;-79
2022/05/23 11:59:30;;;;;;;6.22;2.35;;;;;;;25.14;60.48;100062.25;4854196;29;20274;-79
2022/05/23 12:02:08;;;;;;;4.45;2.20;;;;;;;25.19;58.21;100057.38;4865605;29;20057;-80
2022/05/23 12:04:55;;;;;;;3.00;2.25;;;;;;;25.24;58.34;100066.06;4865162;29;20057;-79
2022/05/23 12:07:42;;;;;;;3.90;2.30;;;;;;;25.25;57.27;100056.97;4869807;29;20048;-80
2022/05/23 12:10:22;;;;;;;2.95;2.17;;;;;;;25.20;55.82;100047.47;4862694;29;20418;-80
2022/05/23 12:13:30;;;;;;;5.32;2.45;;;;;;;25.03;55.63;100040.59;4846705;29;20060;-79
2022/05/23 12:16:30;;;;;;;4.70;2.15;;;;;;;24.94;58.14;100035.84;4865729;29;20061;-80
2022/05/23 12:19:11;;;;;;;8.63;2.50;;;;;;;24.96;58.94;100041.97;4852616;29;20045;-79
2022/05/23 12:21:43;;;;;;;5.40;2.70;;;;;;;24.90;58.75;100025.25;4868740;29;20057;-81
2022/05/23 12:24:29;;;;;;;4.05;2.22;;;;;;;25.01;59.86;100026.31;4866439;29;20045;-80
2022/05/23 12:27:27;;;;;;;3.17;2.50;;;;;;;24.97;58.32;100020.31;4859179;29;20053;-80
2022/05/23 12:30:17;;;;;;;5.68;2.50;;;;;;;24.82;57.72;100024.06;4871866;29;20048;-80
2022/05/23 12:32:54;;;;;;;3.78;2.17;;;;;;;24.70;59.27;100017.69;4861865;29;20056;-79
2022/05/23 12:35:51;;;;;;;3.22;2.20;;;;;;;24.55;59.27;100007.97;4846915;29;20427;-80
2022/05/23 12:38:43;;;;;;;4.97;2.90;;;;;;;24.58;59.82;100002.41;4868109;29;20037;-81
2022/05/23 12:41:27;;;;;;;4.40;2.08;;;;;;;24.73;59.73;100004.03;4855386;29;20041;-79
2022/05/23 12:44:20;;;;;;;4.72;2.15;;;;;;;24.76;58.86;99984.06;4865343;29;20049;-80
2022/05/23 12:47:16;;;;;;;4.10;1.90;;;;;;;24.75;58.31;99988.63;4822164;29;20346;-80
2022/05/23 12:50:05;;;;;;;3.42;2.20;;;;;;;24.65;58.26;99984.81;4842935;29;20173;-80
2022/05/23 12:52:54;;;;;;;5.88;2.03;;;;;;;24.76;57.77;99978.69;4866872;29;20052;-81
2022/05/23 12:55:47;;;;;;;3.42;2.15;;;;;;;24.87;59.10;99968.88;4855951;29;20534;-80
2022/05/23 12:58:33;;;;;;;4.78;1.98;;;;;;;24.96;57.29;99974.59;4871543;29;20060;-80
2022/05/23 13:01:07;;;;;;;3.13;1.77;;;;;;;24.90;58.54;99965.13;4882207;29;20053;-80
2022/05/23 13:03:48;;;;;;;6.13;2.70;;;;;;;24.76;57.60;99954.44;4860579;29;20028;-80
2022/05/23 13:06:47;;;;;;;3.03;2.20;;;;;;;24.71;57.20;99944.00;4854736;29;20067;-79
2022/05/23 13:09:21;;;;;;;3.75;1.90;;;;;;;24.73;59.86;99952.84;4871086;29;20053;-81
2022/05/23 13:12:06;;;;;;;2.63;2.10;;;;;;;24.74;59.43;99938.38;4862893;29;20048;-85